createdAt,value
2018-09-26T00:01:45.633Z,72.68
2018-09-26T00:06:47.753Z,74.86
2018-09-26T00:11:49.899Z,74.45
2018-09-26T00:16:52.095Z,74.81
2018-09-26T00:21:54.280Z,74.10
2018-09-26T00:26:56.400Z,74.67
2018-09-26T00:31:58.518Z,73.91
2018-09-26T00:37:00.625Z,73.37
2018-09-26T00:42:02.751Z,73.51
2018-09-26T00:47:05.103Z,73.70
2018-09-26T00:52:07.276Z,73.06
2018-09-26T00:57:09.391Z,73.29
2018-09-26T01:02:11.564Z,73.54
2018-09-26T01:07:13.669Z,73.39
2018-09-26T01:12:15.806Z,73.71
2018-09-26T01:17:17.989Z,73.55
2018-09-26T01:22:20.172Z,74.06
2018-09-26T01:27:22.259Z,73.90
2018-09-26T01:32:24.377Z,74.31
2018-09-26T01:37:26.518Z,73.14
2018-09-26T01:42:28.639Z,73.69
2018-09-26T01:47:30.759Z,73.55
2018-09-26T01:52:32.927Z,73.51
2018-09-26T01:57:35.047Z,73.40
2018-09-26T02:02:37.144Z,73.80
2018-09-26T02:07:39.311Z,73.23
2018-09-26T02:12:41.433Z,72.68
2018-09-26T02:17:43.573Z,72.76
2018-09-26T02:22:45.682Z,72.53
2018-09-26T02:27:47.792Z,73.73
2018-09-26T02:32:49.952Z,72.85
2018-09-26T02:37:52.147Z,72.94
2018-09-26T02:42:54.285Z,71.96
2018-09-26T02:47:56.370Z,72.44
2018-09-26T02:52:58.519Z,72.00
2018-09-26T02:58:00.624Z,72.39
2018-09-26T03:03:02.746Z,72.11
2018-09-26T03:08:04.845Z,71.99
2018-09-26T03:13:07.104Z,71.68
2018-09-26T03:18:09.235Z,72.27
2018-09-26T03:23:11.988Z,71.75
2018-09-26T03:28:14.079Z,71.30
2018-09-26T03:33:16.311Z,71.33
2018-09-26T03:38:18.404Z,71.09
2018-09-26T03:43:20.484Z,70.48
2018-09-26T03:48:22.596Z,71.17
2018-09-26T03:53:24.743Z,71.12
2018-09-26T03:58:26.849Z,71.82
2018-09-26T04:03:29.243Z,70.64
2018-09-26T04:08:31.364Z,70.27
2018-09-26T04:13:33.481Z,70.42
2018-09-26T04:18:35.598Z,70.36
2018-09-26T04:23:37.711Z,70.29
2018-09-26T04:28:39.827Z,71.26
2018-09-26T04:33:42.031Z,70.94
2018-09-26T04:38:44.159Z,69.61
2018-09-26T04:43:46.234Z,70.36
2018-09-26T04:48:48.334Z,70.68
2018-09-26T04:53:50.499Z,69.57
2018-09-26T04:58:52.604Z,70.36
2018-09-26T05:03:54.708Z,71.42
2018-09-26T05:08:56.835Z,70.30
2018-09-26T05:13:58.959Z,69.59
2018-09-26T05:19:01.253Z,70.47
2018-09-26T05:24:03.407Z,69.50
2018-09-26T05:29:05.542Z,70.55
2018-09-26T05:34:07.660Z,68.66
2018-09-26T05:39:11.079Z,68.51
2018-09-26T05:44:13.193Z,68.70
2018-09-26T05:49:15.361Z,69.14
2018-09-26T05:54:17.499Z,68.73
2018-09-26T05:59:19.639Z,67.89
2018-09-26T06:04:21.741Z,67.53
2018-09-26T06:09:23.876Z,67.17
2018-09-26T06:14:25.998Z,66.56
2018-09-26T06:19:28.136Z,66.86
2018-09-26T06:24:30.266Z,66.85
2018-09-26T06:29:32.441Z,66.60
2018-09-26T06:34:34.581Z,66.14
2018-09-26T06:39:36.677Z,66.61
2018-09-26T06:44:38.791Z,66.12
2018-09-26T06:49:40.918Z,66.68
2018-09-26T06:54:43.068Z,66.22
2018-09-26T06:59:45.208Z,66.15
2018-09-26T07:04:47.372Z,66.55
2018-09-26T07:09:49.460Z,65.97
2018-09-26T07:14:51.589Z,65.54
2018-09-26T07:19:53.708Z,66.24
2018-09-26T07:24:55.847Z,65.71
2018-09-26T07:29:57.946Z,65.08
2018-09-26T07:35:00.094Z,64.91
2018-09-26T07:40:02.248Z,64.85
2018-09-26T07:45:04.709Z,65.55
2018-09-26T07:50:06.851Z,64.86
2018-09-26T07:55:09.060Z,64.83
2018-09-26T08:00:11.187Z,64.55
2018-09-26T08:05:13.296Z,64.49
2018-09-26T08:10:15.414Z,64.22
2018-09-26T08:15:17.567Z,64.28
2018-09-26T08:20:19.719Z,63.88
2018-09-26T08:25:21.831Z,64.21
2018-09-26T08:30:23.935Z,64.84
2018-09-26T08:35:26.088Z,64.60
2018-09-26T08:40:28.201Z,64.32
2018-09-26T08:50:45.543Z,64.29
2018-09-26T08:55:47.707Z,63.88
2018-09-26T09:00:52.371Z,65.83
2018-09-26T09:05:54.463Z,63.99
2018-09-26T09:10:56.583Z,63.88
2018-09-26T09:15:59.011Z,62.78
2018-09-26T09:21:01.163Z,64.46
2018-09-26T09:26:03.644Z,64.02
2018-09-26T09:31:05.790Z,64.47
2018-09-26T09:36:07.910Z,64.12
2018-09-26T09:41:10.158Z,64.32
2018-09-26T09:46:12.259Z,63.66
2018-09-26T09:51:14.434Z,64.33
2018-09-26T09:56:16.672Z,64.21
2018-09-26T10:01:25.202Z,63.46
2018-09-26T10:06:27.946Z,63.10
2018-09-26T10:11:30.123Z,63.76
2018-09-26T10:16:32.270Z,64.46
2018-09-26T10:21:34.441Z,66.01
2018-09-26T10:26:36.554Z,66.07
2018-09-26T10:31:38.689Z,66.03
2018-09-26T10:36:40.821Z,66.12
2018-09-26T10:41:42.955Z,66.47
2018-09-26T10:46:45.179Z,65.84
2018-09-26T10:51:47.232Z,66.11
2018-09-26T10:56:49.411Z,66.35
2018-09-26T11:01:51.526Z,66.65
2018-09-26T11:06:54.008Z,66.76
2018-09-26T11:11:56.163Z,67.13
2018-09-26T11:16:58.279Z,67.21
2018-09-26T11:22:00.530Z,66.92
2018-09-26T11:27:02.703Z,65.87
2018-09-26T11:32:05.136Z,65.86
2018-09-26T11:37:07.314Z,66.82
2018-09-26T11:42:09.497Z,65.72
2018-09-26T11:47:11.681Z,66.01
2018-09-26T11:52:13.860Z,66.21
2018-09-26T11:57:15.992Z,66.05
2018-09-26T12:02:18.262Z,65.88
2018-09-26T12:07:20.325Z,66.40
2018-09-26T12:12:22.516Z,66.18
2018-09-26T12:17:24.596Z,66.09
2018-09-26T12:22:26.774Z,67.03
2018-09-26T12:27:28.871Z,65.97
2018-09-26T12:32:30.972Z,64.61
2018-09-26T12:37:33.101Z,65.46
2018-09-26T12:42:35.270Z,65.96
2018-09-26T12:47:37.374Z,64.69
2018-09-26T12:52:39.584Z,65.12
2018-09-26T12:57:41.760Z,64.84
2018-09-26T13:02:43.936Z,66.37
2018-09-26T13:07:46.104Z,65.63
2018-09-26T13:12:48.255Z,65.10
2018-09-26T13:17:50.470Z,65.84
2018-09-26T13:22:52.599Z,66.92
2018-09-26T13:27:54.752Z,66.09
2018-09-26T13:32:56.916Z,65.26
2018-09-26T13:37:59.099Z,64.78
2018-09-26T13:43:01.370Z,65.81
2018-09-26T13:48:03.643Z,66.94
2018-09-26T13:53:05.776Z,69.86
2018-09-26T13:58:08.011Z,71.74
2018-09-26T14:03:10.149Z,73.60
2018-09-26T14:08:12.301Z,73.85
2018-09-26T14:13:14.481Z,73.85
2018-09-26T14:18:16.822Z,74.13
2018-09-26T14:23:18.996Z,74.49
2018-09-26T14:28:21.187Z,74.09
2018-09-26T14:33:23.476Z,74.02
2018-09-26T14:38:25.620Z,75.64
2018-09-26T14:43:27.760Z,76.27
2018-09-26T14:48:29.890Z,76.85
2018-09-26T14:53:32.066Z,77.70
2018-09-26T14:58:34.244Z,78.30
2018-09-26T15:03:36.431Z,79.13
2018-09-26T15:08:38.636Z,79.44
2018-09-26T15:13:40.753Z,79.76
2018-09-26T15:18:42.898Z,80.17
2018-09-26T15:23:45.052Z,80.79
2018-09-26T15:28:47.220Z,80.65
2018-09-26T15:33:49.380Z,81.09
2018-09-26T15:38:51.500Z,82.35
2018-09-26T15:43:53.622Z,83.18
2018-09-26T15:48:55.841Z,83.21
2018-09-26T15:53:58.017Z,83.45
2018-09-26T15:59:00.561Z,81.84
2018-09-26T16:04:02.765Z,81.16
2018-09-26T16:09:05.177Z,81.26
2018-09-26T16:14:07.440Z,81.10
2018-09-26T16:19:09.626Z,82.37
2018-09-26T16:24:11.812Z,83.94
2018-09-26T16:29:13.943Z,84.45
2018-09-26T16:34:16.210Z,85.58
2018-09-26T16:39:18.526Z,86.56
2018-09-26T16:44:20.633Z,87.97
2018-09-26T16:49:22.886Z,88.63
2018-09-26T16:54:25.205Z,88.29
2018-09-26T16:59:27.318Z,88.85
2018-09-26T17:04:29.512Z,89.21
2018-09-26T17:09:31.745Z,89.70
2018-09-26T17:14:33.924Z,89.75
2018-09-26T17:19:36.105Z,88.79
2018-09-26T17:24:38.309Z,89.53
2018-09-26T17:29:40.574Z,89.56
2018-09-26T17:34:42.904Z,88.96
2018-09-26T17:39:45.469Z,88.99
2018-09-26T17:44:47.811Z,89.04
2018-09-26T17:49:50.013Z,88.05
2018-09-26T17:54:52.212Z,88.73
2018-09-26T17:59:54.509Z,88.44
2018-09-26T18:04:56.979Z,89.20
2018-09-26T18:09:59.264Z,89.42
2018-09-26T18:15:01.492Z,89.68
2018-09-26T18:20:03.794Z,90.20
2018-09-26T18:25:06.283Z,91.28
2018-09-26T18:30:08.583Z,91.92
2018-09-26T18:35:10.859Z,92.47
2018-09-26T18:40:13.316Z,92.91
2018-09-26T18:45:15.718Z,93.06
2018-09-26T18:50:18.069Z,93.51
2018-09-26T18:55:20.338Z,93.98
2018-09-26T19:00:22.857Z,94.11
2018-09-26T19:05:25.630Z,94.40
2018-09-26T19:10:29.051Z,95.08
2018-09-26T19:15:31.854Z,95.72
2018-09-26T19:20:34.282Z,95.55
2018-09-26T19:25:36.961Z,95.20
2018-09-26T19:30:39.452Z,95.05
2018-09-26T19:35:41.966Z,95.65
2018-09-26T19:40:44.300Z,95.80
2018-09-26T19:45:46.555Z,94.84
2018-09-26T19:50:48.886Z,95.20
2018-09-26T19:55:51.276Z,94.88
2018-09-26T20:00:53.661Z,94.35
2018-09-26T20:05:55.941Z,94.90
2018-09-26T20:10:58.246Z,94.26
2018-09-26T20:16:01.250Z,94.17
2018-09-26T20:21:03.558Z,94.35
2018-09-26T20:26:05.776Z,94.10
2018-09-26T20:31:08.363Z,93.78
2018-09-26T20:36:10.468Z,93.60
2018-09-26T20:41:12.680Z,93.38
2018-09-26T20:46:14.874Z,92.77
2018-09-26T20:51:17.089Z,92.38
2018-09-26T20:56:19.284Z,91.63
2018-09-26T21:01:21.466Z,92.50
2018-09-26T21:06:23.716Z,91.79
2018-09-26T21:11:25.955Z,91.22
2018-09-26T21:16:28.103Z,90.89
2018-09-26T21:21:30.250Z,90.58
2018-09-26T21:26:32.450Z,90.83
2018-09-26T21:31:34.614Z,90.54
2018-09-26T21:36:36.779Z,90.58
2018-09-26T21:41:38.975Z,90.31
2018-09-26T21:46:41.114Z,89.99
2018-09-26T21:51:43.320Z,90.42
2018-09-26T21:56:45.493Z,90.31
2018-09-26T22:01:47.713Z,89.78
2018-09-26T22:06:50.359Z,89.46
2018-09-26T22:11:53.488Z,90.06
2018-09-26T22:16:55.668Z,89.86
2018-09-26T22:21:57.895Z,89.59
2018-09-26T22:27:00.060Z,89.04
2018-09-26T22:32:02.220Z,89.29
2018-09-26T22:37:04.912Z,88.90
2018-09-26T22:42:07.076Z,89.15
2018-09-26T22:47:09.223Z,88.40
2018-09-26T22:52:11.358Z,89.14
2018-09-26T22:57:13.831Z,88.46
2018-09-26T23:02:16.252Z,88.23
2018-09-26T23:07:18.389Z,88.22
2018-09-26T23:12:20.555Z,88.77
2018-09-26T23:17:22.700Z,88.07
2018-09-26T23:22:24.878Z,87.96
2018-09-26T23:27:27.034Z,88.11
2018-09-26T23:32:29.239Z,88.66
2018-09-26T23:37:31.386Z,88.46
2018-09-26T23:42:33.532Z,88.09
2018-09-26T23:47:35.728Z,87.91
2018-09-26T23:52:37.871Z,88.03
2018-09-26T23:57:40.032Z,87.45
